Heselton, Kentucky
Current Conditions -  °F | °C
As of 3:35 AM on Friday 28 Nov 2014 (Local Time) from KFGX Reporting Station
Overcast Overcast  
Wind Chill: 20°   Ceiling: 4100
Heat Index: 26°   Visibility: 10mi
Dew Point: 23°   Wind: 6mph
Humidity: 86%   Direction: 270°W
Pressure: 30.4"   Gusts: NA
Location:  38.4929°N, 83.3898°W
Report Text: KFGX 280835Z AUTO 27005KT 10SM OVC041 M03/M05 A3040 RMK AO2 T10311052
Loading
Personal Weather Stations






























Interactive Weather Map New forecast layout! Learn more

10-Day Weather Forecast

Advertisements
Track Severe Weather on mobile